createdAt,value
2023-04-15T00:00:37.354Z,75.32
2023-04-15T00:01:37.459Z,75.49
2023-04-15T00:02:37.491Z,75.47
2023-04-15T00:03:38.364Z,75.45
2023-04-15T00:04:37.338Z,75.43
2023-04-15T00:05:37.333Z,75.47
2023-04-15T00:06:37.296Z,75.53
2023-04-15T00:07:37.304Z,75.55
2023-04-15T00:08:37.292Z,75.47
2023-04-15T00:09:37.269Z,75.47
2023-04-15T00:10:37.230Z,75.50
2023-04-15T00:11:38.722Z,75.61
2023-04-15T00:12:37.337Z,75.60
2023-04-15T00:13:37.216Z,75.64
2023-04-15T00:14:37.180Z,75.51
2023-04-15T00:15:38.130Z,75.40
2023-04-15T00:16:37.249Z,75.34
2023-04-15T00:17:37.192Z,75.28
2023-04-15T00:18:37.139Z,75.26
2023-04-15T00:19:37.147Z,75.09
2023-04-15T00:20:37.229Z,75.14
2023-04-15T00:21:37.219Z,75.22
2023-04-15T00:22:37.097Z,75.13
2023-04-15T00:23:37.104Z,75.13
2023-04-15T00:24:37.061Z,75.13
2023-04-15T00:25:37.102Z,75.13
2023-04-15T00:26:37.057Z,75.17
2023-04-15T00:27:37.309Z,75.28
2023-04-15T00:28:37.047Z,75.26
2023-04-15T00:29:37.035Z,75.39
2023-04-15T00:30:37.031Z,75.38
2023-04-15T00:31:37.019Z,75.46
2023-04-15T00:32:37.028Z,75.52
2023-04-15T00:33:37.104Z,75.67
2023-04-15T00:34:36.964Z,75.75
2023-04-15T00:35:37.417Z,75.92
2023-04-15T00:36:37.419Z,76.07
2023-04-15T00:37:36.931Z,76.28
2023-04-15T00:38:36.922Z,76.36
2023-04-15T00:39:36.910Z,76.43
2023-04-15T00:40:36.890Z,76.71
2023-04-15T00:41:36.890Z,76.82
2023-04-15T00:42:36.855Z,76.83
2023-04-15T00:43:37.108Z,76.91
2023-04-15T00:44:36.837Z,76.99
2023-04-15T00:45:36.870Z,77.01
2023-04-15T00:46:36.822Z,77.01
2023-04-15T00:47:36.839Z,77.11
2023-04-15T00:48:36.784Z,77.13
2023-04-15T00:49:36.813Z,77.21
2023-04-15T00:50:36.780Z,77.35
2023-04-15T00:51:38.238Z,77.40
2023-04-15T00:52:36.781Z,77.39
2023-04-15T00:53:36.749Z,77.34
2023-04-15T00:54:37.451Z,77.30
2023-04-15T00:55:38.166Z,77.34
2023-04-15T00:56:36.699Z,77.29
2023-04-15T00:57:36.759Z,77.23
2023-04-15T00:58:36.700Z,77.20
2023-04-15T00:59:38.147Z,77.24
2023-04-15T01:00:36.664Z,77.33
2023-04-15T01:01:37.609Z,77.45
2023-04-15T01:02:36.975Z,77.56
2023-04-15T01:03:36.768Z,77.54
2023-04-15T01:04:36.686Z,77.70
2023-04-15T01:05:36.613Z,77.68
2023-04-15T01:06:36.589Z,77.70
2023-04-15T01:07:36.589Z,77.72
2023-04-15T01:08:36.546Z,77.64
2023-04-15T01:09:36.577Z,77.60
2023-04-15T01:10:36.559Z,77.51
2023-04-15T01:11:36.559Z,77.48
2023-04-15T01:12:36.513Z,77.49
2023-04-15T01:13:37.972Z,77.53
2023-04-15T01:14:36.502Z,77.48
2023-04-15T01:15:36.520Z,77.49
2023-04-15T01:16:36.562Z,77.48
2023-04-15T01:17:36.489Z,77.50
2023-04-15T01:18:36.432Z,77.61
2023-04-15T01:19:36.502Z,77.82
2023-04-15T01:20:36.575Z,78.08
2023-04-15T01:21:36.411Z,78.34
2023-04-15T01:22:36.408Z,78.61
2023-04-15T01:23:36.409Z,78.93
2023-04-15T01:24:36.378Z,79.26
2023-04-15T01:25:36.381Z,79.34
2023-04-15T01:26:36.336Z,79.37
2023-04-15T01:27:36.350Z,79.40
2023-04-15T01:28:36.325Z,79.50
2023-04-15T01:29:36.345Z,79.65
2023-04-15T01:30:36.290Z,79.62
2023-04-15T01:31:36.352Z,79.58
2023-04-15T01:32:36.300Z,79.64
2023-04-15T01:33:37.718Z,79.64
2023-04-15T01:34:36.298Z,79.62
2023-04-15T01:35:36.264Z,79.58
2023-04-15T01:36:36.220Z,79.38
2023-04-15T01:37:36.248Z,79.18
2023-04-15T01:38:36.198Z,78.86
2023-04-15T01:39:37.701Z,78.71
2023-04-15T01:40:36.277Z,78.69
2023-04-15T01:41:36.263Z,78.74
2023-04-15T01:42:36.157Z,78.73
2023-04-15T01:43:36.334Z,78.66
2023-04-15T01:44:36.152Z,78.61
2023-04-15T01:45:36.125Z,78.71
2023-04-15T01:46:36.346Z,78.93
2023-04-15T01:47:36.145Z,79.03
2023-04-15T01:48:36.089Z,79.20
2023-04-15T01:49:37.548Z,79.44
2023-04-15T01:50:36.057Z,79.64
2023-04-15T01:51:36.072Z,79.81
2023-04-15T01:52:36.042Z,79.98
2023-04-15T01:53:36.049Z,80.04
2023-04-15T01:54:36.041Z,79.90
2023-04-15T01:55:36.328Z,79.98
2023-04-15T01:56:36.006Z,80.02
2023-04-15T01:57:36.011Z,80.02
2023-04-15T01:58:37.464Z,79.99
2023-04-15T01:59:35.981Z,79.99
2023-04-15T02:00:36.360Z,79.88
2023-04-15T02:01:35.951Z,79.82
2023-04-15T02:02:36.052Z,79.79
2023-04-15T02:03:37.463Z,79.71
2023-04-15T02:04:35.969Z,79.66
2023-04-15T02:05:36.342Z,79.48
2023-04-15T02:06:35.900Z,79.36
2023-04-15T02:07:36.344Z,79.34
2023-04-15T02:08:35.869Z,79.38
2023-04-15T02:09:35.866Z,79.44
2023-04-15T02:10:36.361Z,79.43
2023-04-15T02:11:36.345Z,79.50
2023-04-15T02:12:35.828Z,79.63
2023-04-15T02:13:37.249Z,79.63
2023-04-15T02:14:35.826Z,79.70
2023-04-15T02:15:35.773Z,79.94
2023-04-15T02:16:35.844Z,80.13
2023-04-15T02:17:35.864Z,80.49
2023-04-15T02:18:35.748Z,80.68
2023-04-15T02:19:36.000Z,80.72
2023-04-15T02:20:35.738Z,80.82
2023-04-15T02:21:35.853Z,80.90
2023-04-15T02:22:35.705Z,81.01
2023-04-15T02:23:35.676Z,81.02
2023-04-15T02:24:35.679Z,81.15
2023-04-15T02:25:35.822Z,81.19
2023-04-15T02:26:35.655Z,81.25
2023-04-15T02:27:35.634Z,81.22
2023-04-15T02:28:35.641Z,81.18
2023-04-15T02:29:35.623Z,81.11
2023-04-15T02:30:35.626Z,80.98
2023-04-15T02:31:35.614Z,80.90
2023-04-15T02:32:35.618Z,80.88
2023-04-15T02:33:35.563Z,80.84
2023-04-15T02:34:35.599Z,80.67
2023-04-15T02:35:35.630Z,80.65
2023-04-15T02:36:35.546Z,80.59
2023-04-15T02:37:35.515Z,80.53
2023-04-15T02:38:35.534Z,80.47
2023-04-15T02:39:35.485Z,80.45
2023-04-15T02:40:35.511Z,80.48
2023-04-15T02:41:35.473Z,80.41
2023-04-15T02:42:35.479Z,80.42
2023-04-15T02:43:35.647Z,80.40
2023-04-15T02:44:35.449Z,80.36
2023-04-15T02:45:35.531Z,80.35
2023-04-15T02:46:35.435Z,80.32
2023-04-15T02:47:35.439Z,80.31
2023-04-15T02:48:35.418Z,80.27
2023-04-15T02:49:35.373Z,80.27
2023-04-15T02:50:35.575Z,80.24
2023-04-15T02:51:35.665Z,80.25
2023-04-15T02:52:35.368Z,80.21
2023-04-15T02:53:35.643Z,80.22
2023-04-15T02:54:35.339Z,80.18
2023-04-15T02:55:35.319Z,80.13
2023-04-15T02:56:35.301Z,80.09
2023-04-15T02:57:35.289Z,79.92
2023-04-15T02:58:35.293Z,79.83
2023-04-15T02:59:36.745Z,79.82
2023-04-15T03:00:35.298Z,79.81
2023-04-15T03:01:35.282Z,79.84
2023-04-15T03:02:35.391Z,79.92
2023-04-15T03:03:35.312Z,80.05
2023-04-15T03:04:35.214Z,80.10
2023-04-15T03:05:35.219Z,80.24
2023-04-15T03:06:35.201Z,80.22
2023-04-15T03:07:35.453Z,80.28
2023-04-15T03:08:35.167Z,80.50
2023-04-15T03:09:35.148Z,80.52
2023-04-15T03:10:35.171Z,80.52
2023-04-15T03:11:36.377Z,80.55
2023-04-15T03:12:35.139Z,80.52
2023-04-15T03:13:35.118Z,80.49
2023-04-15T03:14:35.105Z,80.46
2023-04-15T03:15:35.143Z,80.48
2023-04-15T03:16:35.068Z,80.48
2023-04-15T03:17:35.144Z,80.62
2023-04-15T03:18:35.053Z,80.60
2023-04-15T03:19:35.121Z,80.61
2023-04-15T03:20:35.125Z,80.73
2023-04-15T03:21:35.009Z,80.84
2023-04-15T03:22:35.048Z,80.93
2023-04-15T03:23:35.280Z,81.06
2023-04-15T03:24:34.985Z,81.06
2023-04-15T03:25:34.974Z,81.01
2023-04-15T03:26:34.962Z,80.95
2023-04-15T03:27:34.957Z,80.91
2023-04-15T03:28:34.948Z,80.80
2023-04-15T03:29:34.908Z,80.69
2023-04-15T03:30:34.934Z,80.64
2023-04-15T03:31:35.000Z,80.62
2023-04-15T03:32:34.968Z,80.58
2023-04-15T03:33:34.888Z,80.50
2023-04-15T03:34:34.878Z,80.50
2023-04-15T03:35:34.869Z,80.59
2023-04-15T03:36:34.852Z,80.62
2023-04-15T03:37:34.821Z,80.73
2023-04-15T03:38:35.684Z,80.79
2023-04-15T03:39:35.678Z,80.95
2023-04-15T03:40:34.836Z,81.12
2023-04-15T03:41:34.783Z,81.20
2023-04-15T03:42:34.789Z,81.30
2023-04-15T03:43:34.768Z,81.44
2023-04-15T03:44:34.773Z,81.48
2023-04-15T03:45:34.736Z,81.55
2023-04-15T03:46:35.717Z,81.72
2023-04-15T03:47:35.477Z,81.84
2023-04-15T03:48:36.164Z,82.01
2023-04-15T03:49:34.690Z,82.05
2023-04-15T03:50:34.700Z,82.06
2023-04-15T03:51:34.674Z,82.02
2023-04-15T03:52:34.688Z,81.92
2023-04-15T03:53:34.646Z,81.87
2023-04-15T03:54:36.127Z,81.86
2023-04-15T03:55:34.631Z,81.78
2023-04-15T03:56:34.637Z,81.72
2023-04-15T03:57:34.595Z,81.64
2023-04-15T03:58:34.598Z,81.60
2023-04-15T03:59:34.608Z,81.57
2023-04-15T04:00:34.708Z,81.52
2023-04-15T04:01:34.615Z,81.44
2023-04-15T04:02:34.683Z,81.41
2023-04-15T04:03:34.794Z,81.40
2023-04-15T04:04:34.686Z,81.37
2023-04-15T04:05:34.508Z,81.34
2023-04-15T04:06:34.508Z,81.42
2023-04-15T04:07:34.502Z,81.45
2023-04-15T04:08:34.497Z,81.53
2023-04-15T04:09:34.451Z,81.51
2023-04-15T04:10:34.455Z,81.48
2023-04-15T04:11:34.440Z,81.52
2023-04-15T04:12:35.192Z,81.58
2023-04-15T04:13:34.422Z,81.71
2023-04-15T04:14:34.430Z,81.87
2023-04-15T04:15:34.462Z,82.00
2023-04-15T04:16:34.435Z,82.10
2023-04-15T04:17:34.425Z,82.27
2023-04-15T04:18:35.829Z,82.26
2023-04-15T04:19:34.357Z,82.39
2023-04-15T04:20:34.352Z,82.76
2023-04-15T04:21:34.328Z,82.88
2023-04-15T04:22:34.349Z,83.03
2023-04-15T04:23:34.306Z,83.06
2023-04-15T04:24:34.297Z,83.05
2023-04-15T04:25:34.311Z,82.95
2023-04-15T04:26:34.297Z,82.77
2023-04-15T04:27:34.272Z,82.73
2023-04-15T04:28:34.244Z,82.70
2023-04-15T04:29:34.245Z,82.55
2023-04-15T04:30:34.269Z,82.40
2023-04-15T04:31:34.229Z,82.17
2023-04-15T04:32:34.250Z,82.21
2023-04-15T04:33:34.175Z,82.49
2023-04-15T04:34:34.632Z,82.77
2023-04-15T04:35:34.167Z,82.92
2023-04-15T04:36:34.709Z,83.18
2023-04-15T04:37:34.157Z,83.31
2023-04-15T04:38:34.171Z,83.43
2023-04-15T04:39:34.112Z,83.59
2023-04-15T04:40:34.113Z,83.58
2023-04-15T04:41:34.099Z,83.58
2023-04-15T04:42:34.114Z,83.52
2023-04-15T04:43:34.356Z,83.44
2023-04-15T04:44:34.065Z,83.32
2023-04-15T04:45:34.101Z,83.03
2023-04-15T04:46:34.064Z,82.92
2023-04-15T04:47:34.084Z,82.70
2023-04-15T04:48:34.040Z,82.41
2023-04-15T04:49:33.992Z,82.38
2023-04-15T04:50:34.010Z,82.23
2023-04-15T04:51:33.973Z,82.09
2023-04-15T04:52:33.993Z,82.05
2023-04-15T04:53:33.973Z,81.94
2023-04-15T04:54:33.952Z,81.84
2023-04-15T04:55:33.924Z,81.80
2023-04-15T04:56:33.918Z,81.78
2023-04-15T04:57:33.908Z,81.74
2023-04-15T04:58:35.373Z,81.73
2023-04-15T04:59:33.890Z,81.75
2023-04-15T05:00:33.900Z,81.77
2023-04-15T05:01:34.743Z,81.83
2023-04-15T05:02:34.032Z,81.85
2023-04-15T05:03:33.999Z,81.97
2023-04-15T05:04:33.834Z,81.98
2023-04-15T05:05:33.809Z,82.02
2023-04-15T05:06:33.818Z,82.02
2023-04-15T05:07:33.780Z,82.03
2023-04-15T05:08:33.799Z,82.07
2023-04-15T05:09:33.777Z,82.13
2023-04-15T05:10:33.775Z,82.19
2023-04-15T05:11:33.742Z,82.33
2023-04-15T05:12:33.758Z,82.56
2023-04-15T05:13:33.719Z,82.77
2023-04-15T05:14:33.728Z,82.72
2023-04-15T05:15:33.746Z,82.90
2023-04-15T05:16:33.697Z,82.86
2023-04-15T05:17:33.733Z,82.88
2023-04-15T05:18:33.676Z,82.81
2023-04-15T05:19:33.670Z,82.83
2023-04-15T05:20:33.645Z,82.78
2023-04-15T05:21:33.634Z,82.83
2023-04-15T05:22:33.650Z,82.86
2023-04-15T05:23:33.610Z,82.89
2023-04-15T05:24:33.621Z,82.88
2023-04-15T05:25:33.592Z,82.93
2023-04-15T05:26:33.580Z,82.95
2023-04-15T05:27:33.560Z,82.99
2023-04-15T05:28:33.587Z,82.99
2023-04-15T05:29:33.544Z,83.02
2023-04-15T05:30:33.541Z,83.00
2023-04-15T05:31:33.625Z,82.90
2023-04-15T05:32:33.578Z,82.93
2023-04-15T05:33:33.486Z,82.89
2023-04-15T05:34:33.525Z,82.82
2023-04-15T05:35:33.470Z,82.67
2023-04-15T05:36:33.459Z,82.47
2023-04-15T05:37:33.477Z,82.51
2023-04-15T05:38:33.482Z,82.47
2023-04-15T05:39:33.420Z,82.34
2023-04-15T05:40:33.423Z,82.25
2023-04-15T05:41:33.398Z,82.13
2023-04-15T05:42:33.427Z,82.03
2023-04-15T05:43:33.390Z,81.91
2023-04-15T05:44:33.400Z,81.79
2023-04-15T05:45:33.345Z,81.72
2023-04-15T05:46:33.393Z,81.67
2023-04-15T05:47:33.353Z,81.58
2023-04-15T05:48:33.316Z,81.63
2023-04-15T05:49:33.326Z,81.74
2023-04-15T05:50:33.313Z,81.78
2023-04-15T05:51:33.288Z,81.83
2023-04-15T05:52:33.296Z,81.94
2023-04-15T05:53:33.255Z,81.89
2023-04-15T05:54:33.276Z,81.82
2023-04-15T05:55:33.232Z,81.53
2023-04-15T05:56:33.244Z,81.46
2023-04-15T05:57:33.223Z,81.36
2023-04-15T05:58:33.227Z,81.06
2023-04-15T05:59:33.208Z,81.05
2023-04-15T06:00:33.224Z,81.02
2023-04-15T06:01:33.163Z,80.99
2023-04-15T06:02:33.270Z,81.01
2023-04-15T06:03:33.266Z,80.93
2023-04-15T06:04:33.246Z,80.96
2023-04-15T06:05:33.145Z,80.80
2023-04-15T06:06:33.121Z,80.57
2023-04-15T06:07:33.146Z,80.42
2023-04-15T06:08:33.098Z,80.30
2023-04-15T06:09:33.068Z,80.26
2023-04-15T06:10:33.988Z,80.06
2023-04-15T06:11:33.054Z,79.98
2023-04-15T06:12:33.031Z,79.91
2023-04-15T06:13:33.053Z,79.87
2023-04-15T06:14:33.024Z,79.85
2023-04-15T06:15:33.019Z,79.04
2023-04-15T06:16:33.019Z,78.95
2023-04-15T06:17:33.036Z,78.71
2023-04-15T06:18:32.969Z,78.60
2023-04-15T06:19:32.967Z,78.24
2023-04-15T06:20:32.941Z,77.89
2023-04-15T06:21:32.950Z,77.65
2023-04-15T06:22:32.954Z,77.49
2023-04-15T06:23:32.933Z,77.68
2023-04-15T06:24:32.889Z,77.80
2023-04-15T06:25:32.902Z,77.79
2023-04-15T06:26:33.450Z,77.94
2023-04-15T06:27:32.876Z,77.96
2023-04-15T06:28:32.864Z,77.81
2023-04-15T06:29:32.854Z,77.74
2023-04-15T06:30:32.837Z,77.56
2023-04-15T06:31:32.860Z,77.30
2023-04-15T06:32:32.870Z,77.01
2023-04-15T06:33:32.800Z,76.85
2023-04-15T06:34:32.809Z,76.78
2023-04-15T06:35:32.782Z,76.53
2023-04-15T06:36:32.756Z,76.11
2023-04-15T06:37:32.770Z,75.43
2023-04-15T06:38:32.747Z,75.25
2023-04-15T06:39:32.743Z,74.86
2023-04-15T06:40:32.705Z,74.12
2023-04-15T06:41:32.718Z,72.98
2023-04-15T06:42:32.715Z,72.09
2023-04-15T06:43:32.692Z,71.72
2023-04-15T06:44:34.102Z,70.95
2023-04-15T06:45:32.668Z,70.08
2023-04-15T06:46:32.825Z,68.93
2023-04-15T06:47:32.701Z,68.02
2023-04-15T06:48:32.622Z,67.43
2023-04-15T06:49:34.084Z,66.37
2023-04-15T06:50:32.827Z,66.72
2023-04-15T06:51:32.736Z,66.70
2023-04-15T06:52:33.288Z,66.56
2023-04-15T06:53:32.592Z,66.22
2023-04-15T06:54:32.597Z,65.47
2023-04-15T06:55:32.620Z,64.85
2023-04-15T06:56:32.637Z,65.13
2023-04-15T06:57:34.526Z,64.80
2023-04-15T06:58:32.660Z,64.32
2023-04-15T06:59:32.686Z,63.68
2023-04-15T07:00:32.487Z,62.78
2023-04-15T07:01:32.543Z,62.70
2023-04-15T07:02:32.613Z,63.48
2023-04-15T07:03:33.000Z,63.58
2023-04-15T07:04:32.511Z,63.73
2023-04-15T07:05:33.892Z,63.85
2023-04-15T07:06:32.639Z,62.52
2023-04-15T07:07:32.436Z,62.82
2023-04-15T07:08:32.704Z,62.68
2023-04-15T07:09:32.409Z,62.63
2023-04-15T07:10:32.783Z,62.71
2023-04-15T07:11:32.351Z,63.29
2023-04-15T07:12:32.343Z,62.87
2023-04-15T07:13:32.384Z,62.61
2023-04-15T07:14:32.306Z,62.75
2023-04-15T07:15:32.348Z,61.89
2023-04-15T07:16:32.308Z,61.58
2023-04-15T07:17:32.330Z,62.20
2023-04-15T07:18:32.284Z,62.05
2023-04-15T07:19:32.268Z,62.21
2023-04-15T07:20:32.243Z,62.43
2023-04-15T07:21:32.253Z,62.04
2023-04-15T07:22:32.535Z,61.51
2023-04-15T07:23:32.226Z,60.55
2023-04-15T07:24:32.200Z,60.63
2023-04-15T07:25:32.228Z,60.91
2023-04-15T07:26:32.163Z,60.50
2023-04-15T07:27:32.201Z,60.48
2023-04-15T07:28:32.149Z,60.17
2023-04-15T07:29:32.171Z,58.97
2023-04-15T07:30:32.860Z,59.99
2023-04-15T07:31:32.204Z,59.20
2023-04-15T07:32:32.188Z,59.23
2023-04-15T07:33:32.117Z,59.66
2023-04-15T07:34:32.748Z,59.83
2023-04-15T07:35:32.423Z,58.44
2023-04-15T07:36:32.057Z,58.72
2023-04-15T07:37:32.873Z,59.02
2023-04-15T07:38:32.048Z,59.15
2023-04-15T07:39:32.033Z,59.43
2023-04-15T07:40:32.028Z,59.66
2023-04-15T07:41:32.017Z,59.64
2023-04-15T07:42:32.011Z,59.85
2023-04-15T07:43:32.027Z,59.28
2023-04-15T07:44:31.956Z,59.03
2023-04-15T07:45:31.956Z,58.30
2023-04-15T07:46:31.984Z,59.18
2023-04-15T07:47:31.961Z,59.02
2023-04-15T07:48:33.713Z,59.17
2023-04-15T07:49:31.916Z,59.08
2023-04-15T07:50:31.898Z,58.57
2023-04-15T07:51:31.900Z,58.04
2023-04-15T07:52:31.867Z,59.37
2023-04-15T07:53:31.890Z,58.97
2023-04-15T07:54:31.848Z,58.85
2023-04-15T07:55:31.871Z,58.71
2023-04-15T07:56:31.827Z,59.61
2023-04-15T07:57:31.848Z,58.65
2023-04-15T07:58:31.817Z,59.58
2023-04-15T07:59:31.805Z,59.47
2023-04-15T08:00:31.809Z,59.45
2023-04-15T08:01:31.782Z,58.75
2023-04-15T08:02:31.865Z,58.41
2023-04-15T08:03:31.890Z,58.59
2023-04-15T08:04:31.855Z,59.18
2023-04-15T08:05:31.730Z,58.95
2023-04-15T08:06:31.690Z,60.16
2023-04-15T08:07:31.749Z,59.70
2023-04-15T08:08:31.725Z,60.21
2023-04-15T08:09:31.684Z,60.05
2023-04-15T08:10:31.654Z,60.99
2023-04-15T08:11:31.650Z,61.23
2023-04-15T08:12:31.639Z,60.28
2023-04-15T08:13:31.682Z,60.82
2023-04-15T08:14:31.604Z,60.22
2023-04-15T08:15:31.626Z,61.09
2023-04-15T08:16:31.581Z,60.51
2023-04-15T08:17:31.604Z,59.97
2023-04-15T08:18:31.574Z,59.62
2023-04-15T08:19:31.580Z,59.80
2023-04-15T08:20:31.569Z,59.67
2023-04-15T08:21:31.536Z,59.29
2023-04-15T08:22:31.496Z,59.81
2023-04-15T08:23:31.514Z,60.65
2023-04-15T08:24:31.511Z,61.08
2023-04-15T08:25:31.496Z,60.94
2023-04-15T08:26:31.457Z,60.59
2023-04-15T08:27:31.474Z,61.02
2023-04-15T08:28:31.456Z,61.15
2023-04-15T08:29:31.477Z,60.08
2023-04-15T08:30:31.422Z,60.07
2023-04-15T08:31:31.456Z,60.42
2023-04-15T08:32:31.405Z,61.74
2023-04-15T08:33:31.411Z,62.29
2023-04-15T08:34:31.375Z,62.06
2023-04-15T08:35:31.370Z,62.19
2023-04-15T08:36:31.359Z,62.01
2023-04-15T08:37:31.357Z,61.50
2023-04-15T08:38:31.323Z,61.14
2023-04-15T08:39:31.332Z,61.92
2023-04-15T08:40:31.299Z,60.56
2023-04-15T08:41:31.283Z,61.36
2023-04-15T08:42:31.273Z,60.67
2023-04-15T08:43:31.268Z,61.25
2023-04-15T08:44:31.280Z,60.02
2023-04-15T08:45:31.245Z,59.99
2023-04-15T08:46:31.265Z,60.01
2023-04-15T08:47:31.270Z,60.80
2023-04-15T08:48:31.198Z,59.72
2023-04-15T08:49:31.231Z,60.14
2023-04-15T08:50:31.183Z,59.63
2023-04-15T08:51:31.170Z,59.55
2023-04-15T08:52:31.158Z,58.62
2023-04-15T08:53:31.162Z,58.15
2023-04-15T08:54:31.148Z,57.96
2023-04-15T08:55:31.195Z,58.34
2023-04-15T08:56:31.111Z,58.23
2023-04-15T08:57:31.200Z,58.06
2023-04-15T08:58:31.085Z,58.81
2023-04-15T08:59:31.118Z,58.53
2023-04-15T09:00:31.057Z,57.80
2023-04-15T09:01:31.075Z,58.00
2023-04-15T09:02:31.169Z,58.33
2023-04-15T09:03:31.074Z,58.38
2023-04-15T09:04:31.336Z,58.88
2023-04-15T09:05:31.012Z,57.79
2023-04-15T09:06:31.010Z,58.57
2023-04-15T09:07:30.992Z,58.64
2023-04-15T09:08:30.986Z,58.42
2023-04-15T09:09:31.923Z,58.41
2023-04-15T09:10:30.948Z,57.36
2023-04-15T09:11:30.944Z,57.28
2023-04-15T09:12:30.914Z,57.23
2023-04-15T09:13:30.942Z,57.37
2023-04-15T09:14:30.907Z,57.05
2023-04-15T09:15:30.934Z,58.32
2023-04-15T09:16:30.912Z,57.20
2023-04-15T09:17:31.041Z,56.42
2023-04-15T09:18:30.855Z,56.76
2023-04-15T09:19:30.852Z,56.85
2023-04-15T09:20:30.836Z,56.38
2023-04-15T09:21:30.839Z,55.98
2023-04-15T09:22:30.791Z,54.50
2023-04-15T09:23:30.811Z,54.87
2023-04-15T09:24:30.803Z,54.06
2023-04-15T09:25:32.812Z,53.32
2023-04-15T09:26:30.795Z,53.07
2023-04-15T09:27:30.798Z,51.31
2023-04-15T09:28:30.734Z,51.21
2023-04-15T09:29:30.722Z,51.25
2023-04-15T09:30:30.757Z,51.83
2023-04-15T09:31:30.739Z,51.53
2023-04-15T09:32:30.703Z,52.43
2023-04-15T09:33:30.814Z,53.60
2023-04-15T09:34:30.650Z,54.24
2023-04-15T09:35:30.653Z,54.57
2023-04-15T09:36:30.663Z,56.31
2023-04-15T09:37:32.289Z,56.75
2023-04-15T09:38:30.616Z,55.88
2023-04-15T09:39:30.636Z,55.73
2023-04-15T09:40:30.583Z,56.65
2023-04-15T09:41:30.941Z,56.47
2023-04-15T09:42:30.585Z,56.02
2023-04-15T09:43:30.574Z,56.22
2023-04-15T09:44:30.543Z,55.48
2023-04-15T09:45:30.536Z,55.98
2023-04-15T09:46:30.590Z,56.12
2023-04-15T09:47:30.561Z,54.92
2023-04-15T09:48:30.498Z,55.74
2023-04-15T09:49:31.057Z,56.09
2023-04-15T09:50:30.465Z,54.49
2023-04-15T09:51:30.472Z,54.94
2023-04-15T09:52:30.470Z,54.54
2023-04-15T09:53:31.809Z,54.80
2023-04-15T09:54:30.432Z,54.22
2023-04-15T09:55:30.447Z,53.93
2023-04-15T09:56:30.397Z,54.05
2023-04-15T09:57:30.419Z,53.80
2023-04-15T09:58:30.392Z,52.64
2023-04-15T09:59:30.381Z,52.75
2023-04-15T10:00:30.351Z,53.30
2023-04-15T10:01:30.405Z,53.88
2023-04-15T10:02:30.452Z,54.92
2023-04-15T10:03:30.637Z,53.98
2023-04-15T10:04:30.923Z,53.07
2023-04-15T10:05:30.331Z,53.15
2023-04-15T10:06:30.307Z,53.82
2023-04-15T10:07:30.332Z,52.42
2023-04-15T10:08:30.278Z,53.39
2023-04-15T10:09:30.258Z,52.42
2023-04-15T10:10:30.238Z,52.17
2023-04-15T10:11:31.583Z,51.81
2023-04-15T10:12:30.227Z,51.95
2023-04-15T10:13:30.227Z,52.03
2023-04-15T10:14:30.199Z,51.01
2023-04-15T10:15:31.713Z,50.33
2023-04-15T10:16:30.201Z,48.77
2023-04-15T10:17:31.802Z,47.24
2023-04-15T10:18:30.506Z,46.94
2023-04-15T10:19:30.141Z,48.13
2023-04-15T10:20:30.125Z,46.52
2023-04-15T10:21:30.136Z,45.45
2023-04-15T10:22:30.128Z,45.45
2023-04-15T10:23:30.773Z,44.91
2023-04-15T10:24:30.090Z,44.75
2023-04-15T10:25:30.076Z,45.41
2023-04-15T10:26:30.056Z,45.16
2023-04-15T10:27:30.101Z,45.68
2023-04-15T10:28:30.048Z,46.39
2023-04-15T10:29:30.019Z,47.40
2023-04-15T10:30:30.030Z,46.86
2023-04-15T10:31:30.054Z,46.37
2023-04-15T10:32:30.080Z,45.62
2023-04-15T10:33:30.002Z,45.38
2023-04-15T10:34:29.989Z,45.70
2023-04-15T10:35:29.958Z,46.43
2023-04-15T10:36:29.948Z,45.79
2023-04-15T10:37:29.931Z,45.63
2023-04-15T10:38:29.942Z,46.20
2023-04-15T10:39:29.891Z,45.85
2023-04-15T10:40:29.899Z,46.69
2023-04-15T10:41:29.890Z,47.50
2023-04-15T10:42:29.893Z,46.66
2023-04-15T10:43:29.857Z,46.57
2023-04-15T10:44:29.881Z,46.55
2023-04-15T10:45:29.825Z,45.58
2023-04-15T10:46:29.862Z,45.88
2023-04-15T10:47:29.822Z,45.71
2023-04-15T10:48:29.822Z,45.89
2023-04-15T10:49:29.788Z,45.57
2023-04-15T10:50:29.816Z,45.71
2023-04-15T10:51:29.768Z,46.27
2023-04-15T10:52:29.774Z,46.00
2023-04-15T10:53:29.750Z,46.26
2023-04-15T10:54:29.756Z,46.24
2023-04-15T10:55:29.706Z,46.11
2023-04-15T10:56:29.715Z,46.48
2023-04-15T10:57:29.703Z,45.89
2023-04-15T10:58:29.692Z,46.49
2023-04-15T10:59:29.681Z,47.09
2023-04-15T11:00:29.660Z,47.01
2023-04-15T11:01:29.678Z,46.64
2023-04-15T11:02:29.897Z,46.41
2023-04-15T11:03:29.766Z,46.88
2023-04-15T11:04:29.683Z,46.39
2023-04-15T11:05:29.602Z,46.26
2023-04-15T11:06:29.602Z,46.99
2023-04-15T11:07:29.573Z,47.81
2023-04-15T11:08:29.578Z,46.76
2023-04-15T11:09:29.548Z,48.74
2023-04-15T11:10:29.544Z,47.65
2023-04-15T11:11:29.545Z,47.71
2023-04-15T11:12:29.565Z,47.39
2023-04-15T11:13:29.531Z,46.54
2023-04-15T11:14:29.518Z,46.34
2023-04-15T11:15:29.486Z,46.66
2023-04-15T11:16:29.520Z,47.22
2023-04-15T11:17:29.507Z,46.65
2023-04-15T11:18:29.465Z,46.69
2023-04-15T11:19:29.431Z,47.40
2023-04-15T11:20:29.438Z,48.16
2023-04-15T11:21:29.391Z,49.05
2023-04-15T11:22:29.423Z,47.96
2023-04-15T11:23:29.387Z,48.61
2023-04-15T11:24:29.402Z,48.52
2023-04-15T11:25:29.355Z,48.80
2023-04-15T11:26:29.378Z,48.04
2023-04-15T11:27:29.348Z,48.94
2023-04-15T11:28:29.387Z,49.58
2023-04-15T11:29:29.322Z,49.75
2023-04-15T11:30:29.317Z,50.29
2023-04-15T11:31:29.347Z,50.49
2023-04-15T11:32:29.370Z,50.39
2023-04-15T11:33:29.295Z,49.88
2023-04-15T11:34:29.294Z,49.42
2023-04-15T11:35:29.253Z,49.25
2023-04-15T11:36:29.281Z,49.20
2023-04-15T11:37:29.231Z,50.16
2023-04-15T11:38:29.253Z,50.46
2023-04-15T11:39:29.210Z,50.37
2023-04-15T11:40:29.216Z,50.77
2023-04-15T11:41:29.207Z,49.75
2023-04-15T11:42:39.257Z,49.15
2023-04-15T11:43:30.181Z,49.74
2023-04-15T11:44:29.184Z,50.25
2023-04-15T11:45:29.183Z,51.32
2023-04-15T11:46:29.148Z,51.75
2023-04-15T11:47:29.152Z,52.24
2023-04-15T11:48:29.115Z,51.42
2023-04-15T11:49:29.119Z,52.07
2023-04-15T11:50:29.093Z,51.72
2023-04-15T11:51:29.081Z,51.65
2023-04-15T11:52:29.077Z,50.90
2023-04-15T11:53:29.059Z,51.24
2023-04-15T11:54:29.038Z,51.80
2023-04-15T11:55:29.015Z,51.74
2023-04-15T11:56:29.022Z,51.60
2023-04-15T11:57:29.014Z,51.48
2023-04-15T11:58:29.027Z,52.58
2023-04-15T11:59:38.974Z,52.40
2023-04-15T12:00:29.974Z,52.43
2023-04-15T12:01:28.956Z,52.66
2023-04-15T12:02:29.026Z,53.67
2023-04-15T12:03:29.095Z,53.71
2023-04-15T12:04:29.075Z,53.60
2023-04-15T12:05:28.905Z,54.38
2023-04-15T12:06:28.919Z,54.68
2023-04-15T12:07:28.926Z,54.50
2023-04-15T12:08:28.902Z,54.81
2023-04-15T12:09:29.589Z,54.98
2023-04-15T12:10:28.871Z,54.81
2023-04-15T12:11:28.934Z,54.98
2023-04-15T12:12:28.844Z,55.25
2023-04-15T12:13:28.819Z,54.87
2023-04-15T12:14:28.821Z,55.33
2023-04-15T12:15:28.869Z,55.70
2023-04-15T12:16:28.829Z,55.86
2023-04-15T12:17:28.808Z,56.19
2023-04-15T12:18:28.767Z,56.36
2023-04-15T12:19:28.847Z,56.67
2023-04-15T12:20:28.754Z,56.15
2023-04-15T12:21:28.716Z,55.72
2023-04-15T12:22:28.713Z,55.68
2023-04-15T12:23:28.705Z,56.19
2023-04-15T12:24:30.151Z,55.89
2023-04-15T12:25:28.681Z,55.78
2023-04-15T12:26:29.099Z,56.02
2023-04-15T12:27:29.895Z,56.36
2023-04-15T12:28:28.671Z,56.36
2023-04-15T12:29:28.616Z,56.39
2023-04-15T12:30:28.635Z,56.52
2023-04-15T12:31:28.612Z,56.72
2023-04-15T12:32:28.650Z,56.56
2023-04-15T12:33:28.595Z,56.12
2023-04-15T12:34:28.834Z,56.38
2023-04-15T12:35:28.856Z,56.87
2023-04-15T12:36:28.556Z,56.15
2023-04-15T12:37:28.549Z,56.73
2023-04-15T12:38:28.526Z,57.04
2023-04-15T12:39:30.471Z,57.54
2023-04-15T12:40:28.511Z,57.23
2023-04-15T12:41:28.520Z,56.99
2023-04-15T12:42:28.529Z,57.39
2023-04-15T12:43:29.085Z,57.17
2023-04-15T12:44:28.461Z,57.47
2023-04-15T12:45:29.899Z,57.99
2023-04-15T12:46:29.138Z,58.21
2023-04-15T12:47:28.450Z,58.47
2023-04-15T12:48:28.410Z,57.90
2023-04-15T12:49:28.411Z,58.27
2023-04-15T12:50:28.378Z,58.53
2023-04-15T12:51:29.112Z,59.03
2023-04-15T12:52:28.386Z,58.72